Airfield :
LOGIN :

Register | Disclaimer

   EN    FR    IT 

 










Legend :    VFR   Marginal VFR   IFR   Intensive IFR   Very Intensive IFR
Visi :
Ceiling :
>= 8 km
>= 3000ft
5 to 8 km
1000 to 3000 ft
1500m to 5 km
500 to 1000 ft
800 to 1500m
200 to 500 ft
< 800m
< 200 ft
Symbols :   Thunderstorms  Fog  Heavy snow  Heavy precipitations  Wind > 20 kt
SIGMETs :     Misc.  Thunderstorms  Icing  Turbulence  Mountain Waves  Volcanic Ashes






- Airport Elevation : 146 ft
- IATA code : RKE


EKRK - Roskilde Tune

CURRENT METAR :
  • 181320Z AUTO 34010KT 300V360 9999 SCT031/// SCT035/// BKN078/// 09/02 Q1012

EXPIRED METARs :
  • 181250Z AUTO 33010KT 9999 SCT029/// BKN220/// 08/02 Q1012
  • 181220Z AUTO 33011KT 9999 BKN028/// 08/03 Q1012
  • 181150Z AUTO 26004KT 230V300 9999 FEW024/// BKN027/// 08/04 Q1013
  • 181120Z AUTO 21005KT 180V270 9999 -RA BKN024/// 07/03 Q1013 RESHRA
  • 181050Z AUTO 16007KT 9999 -RA BKN031/// BKN092/// 06/02 Q1013 RESHRA
  • 181020Z AUTO 20007KT 9999 -RA BKN032/// 07/02 Q1013 RESHRA
  • 180950Z AUTO 31010G25KT 230V020 9999 -RA FEW033/// BKN046/// 07/01 Q1013
  • 180920Z AUTO 27011KT 9999 FEW066/// 10/M03 Q1013
  • 180850Z AUTO 26009KT 230V300 9999 NCD 10/00 Q1013

TAF TAF EKRK
Valid from the 18 at 12:00 until the 18 at 21:00 UTC


181114Z 1812/1821 32008KT 9999 SCT020
TEMPO 1812/1815 02015G25KT SHRA SCT020CB



MET'MAP, your aeronautical weather chart ! - Copyright ORBIFLY December 2007 - Disclaimer

ORBIFLY MET'MAP TEAM :

Programming & Development : Alexandra Zaïnal
Original concept : Baudouin d'Aumeries
Technical & hardware support : Manuel Goepfert
Assistance : Marc-Olivier Méhu




SOURCES & CREDITS :

   NOAA